Time;durP1;ratioP1;P1;durP2;ratioP2;P2;SDS_P1;SDS_P2;PMS_P1;PMS_P2;Temp;Humidity;BMP_temperature;BMP_pressure;BME280_temperature;BME280_humidity;BME280_pressure;Samples;Min_cycle;Max_cycle;Signal;HPM_P1;HPM_P2
2024/02/27 00:02:26;;;;;;;7.83;7.03;;;9.80;34.20;;;;;;10495159;28;20231;-75
2024/02/27 00:07:30;;;;;;;8.30;7.47;;;9.80;34.10;;;;;;10494145;28;20317;-75
2024/02/27 00:12:36;;;;;;;8.73;7.83;;;9.80;34.00;;;;;;10494929;28;20262;-75
2024/02/27 00:17:39;;;;;;;7.93;7.17;;;9.80;34.20;;;;;;10492010;28;20228;-75
2024/02/27 00:22:43;;;;;;;8.10;7.30;;;9.80;34.00;;;;;;10493913;28;20232;-75
2024/02/27 00:27:47;;;;;;;6.70;6.10;;;9.80;34.10;;;;;;10492416;28;20228;-75
2024/02/27 00:32:52;;;;;;;7.93;7.23;;;9.80;34.20;;;;;;10494309;28;20307;-75
2024/02/27 00:37:55;;;;;;;8.70;7.90;;;9.70;34.20;;;;;;10493358;28;20315;-75
2024/02/27 00:43:00;;;;;;;8.33;7.53;;;9.70;34.20;;;;;;10492681;28;20232;-75
2024/02/27 00:48:04;;;;;;;8.43;7.63;;;9.70;34.40;;;;;;10492028;28;20273;-75
2024/02/27 00:53:08;;;;;;;8.43;7.63;;;9.70;34.30;;;;;;10492572;28;20320;-75
2024/02/27 00:58:12;;;;;;;8.53;7.70;;;9.70;34.40;;;;;;10493217;28;20233;-74
2024/02/27 01:03:15;;;;;;;8.53;7.73;;;9.70;34.40;;;;;;10491482;28;20264;-75
2024/02/27 01:08:19;;;;;;;8.53;7.70;;;9.60;34.20;;;;;;10491128;28;20237;-75
2024/02/27 01:13:23;;;;;;;8.80;7.63;;;9.60;34.30;;;;;;10492583;28;20228;-74
2024/02/27 01:18:26;;;;;;;9.83;8.83;;;9.50;34.40;;;;;;10492852;28;20667;-75
2024/02/27 01:23:31;;;;;;;9.70;8.80;;;9.50;34.40;;;;;;10492439;28;20248;-75
2024/02/27 01:28:35;;;;;;;9.93;9.03;;;9.50;34.40;;;;;;10491844;28;20322;-75
2024/02/27 01:33:39;;;;;;;9.97;8.97;;;9.40;34.30;;;;;;10492018;28;20315;-75
2024/02/27 01:38:42;;;;;;;9.53;8.63;;;9.40;34.30;;;;;;10491761;28;20783;-75
2024/02/27 01:43:47;;;;;;;10.17;9.07;;;9.30;34.30;;;;;;10491535;28;20232;-75
2024/02/27 01:48:52;;;;;;;9.30;8.40;;;9.30;34.50;;;;;;10491331;28;20254;-74
2024/02/27 01:53:59;;;;;;;9.50;8.50;;;9.30;34.60;;;;;;10490939;28;20229;-75
2024/02/27 01:59:04;;;;;;;10.33;9.30;;;9.20;35.00;;;;;;10490562;28;20236;-75
2024/02/27 02:04:09;;;;;;;10.53;9.50;;;9.20;34.70;;;;;;10489981;28;20232;-75
2024/02/27 02:09:12;;;;;;;10.50;9.50;;;9.10;34.70;;;;;;10490340;28;20233;-75
2024/02/27 02:14:19;;;;;;;10.43;9.43;;;9.10;34.60;;;;;;10490041;28;20228;-75
2024/02/27 02:19:22;;;;;;;10.50;9.30;;;9.00;34.90;;;;;;10490135;28;20311;-75
2024/02/27 02:24:30;;;;;;;10.13;8.93;;;9.00;34.90;;;;;;10489986;28;20228;-75
2024/02/27 02:29:33;;;;;;;10.93;9.83;;;9.00;35.50;;;;;;10489752;28;20236;-74
2024/02/27 02:34:36;;;;;;;10.13;9.10;;;8.90;35.10;;;;;;10489499;28;20319;-75
2024/02/27 02:39:41;;;;;;;10.10;9.10;;;8.90;35.10;;;;;;10489296;28;21048;-75
2024/02/27 02:44:45;;;;;;;10.83;9.73;;;8.90;35.40;;;;;;10488756;28;20714;-75
2024/02/27 02:49:49;;;;;;;10.50;9.50;;;8.90;35.30;;;;;;10488834;28;20232;-75
2024/02/27 02:54:53;;;;;;;11.23;9.80;;;9.00;35.50;;;;;;10488822;28;20252;-75
2024/02/27 02:59:57;;;;;;;11.63;9.83;;;9.00;35.70;;;;;;10488539;28;20323;-75
2024/02/27 03:05:00;;;;;;;11.70;10.60;;;9.00;35.50;;;;;;10488385;28;20232;-75
2024/02/27 03:10:05;;;;;;;10.83;9.73;;;9.00;35.50;;;;;;10488145;28;20664;-75
2024/02/27 03:15:09;;;;;;;11.20;10.03;;;9.00;35.70;;;;;;10488086;28;20789;-75
2024/02/27 03:20:12;;;;;;;11.23;10.13;;;9.00;35.50;;;;;;10488034;28;20236;-75
2024/02/27 03:25:17;;;;;;;11.97;10.77;;;9.10;35.50;;;;;;10487945;28;20293;-75
2024/02/27 03:30:20;;;;;;;12.73;11.43;;;9.00;35.60;;;;;;10487972;28;20919;-75
2024/02/27 03:35:24;;;;;;;13.37;11.87;;;9.00;35.50;;;;;;10487774;28;20224;-75
2024/02/27 03:40:28;;;;;;;13.83;12.43;;;9.00;35.50;;;;;;10487701;28;20238;-75
2024/02/27 03:45:31;;;;;;;15.13;13.33;;;9.00;35.80;;;;;;10487636;28;20597;-75
2024/02/27 03:50:35;;;;;;;13.97;12.47;;;9.00;35.60;;;;;;10487448;28;20235;-75
2024/02/27 03:55:39;;;;;;;15.23;13.73;;;8.90;35.70;;;;;;10487438;28;20232;-75
2024/02/27 04:00:42;;;;;;;15.60;14.00;;;8.90;35.90;;;;;;10487308;28;20316;-75
2024/02/27 04:05:46;;;;;;;16.73;14.27;;;8.90;35.80;;;;;;10487107;28;20722;-74
2024/02/27 04:10:51;;;;;;;17.20;14.17;;;8.80;35.80;;;;;;10487366;28;20236;-75
2024/02/27 04:15:54;;;;;;;16.37;14.33;;;8.80;36.00;;;;;;10487010;28;20307;-75
2024/02/27 04:20:57;;;;;;;16.90;14.57;;;8.80;35.90;;;;;;10487094;28;20262;-77
2024/02/27 04:26:02;;;;;;;17.13;14.60;;;8.80;36.10;;;;;;10491041;28;20231;-77
2024/02/27 04:31:07;;;;;;;17.60;14.83;;;8.80;36.40;;;;;;10493851;28;20667;-74
2024/02/27 04:36:10;;;;;;;18.47;15.03;;;8.80;36.20;;;;;;10494153;28;20228;-76
2024/02/27 04:41:15;;;;;;;16.63;14.23;;;8.80;36.20;;;;;;10493930;28;20286;-74
2024/02/27 04:46:18;;;;;;;17.30;15.47;;;8.80;36.50;;;;;;10493653;28;20258;-75
2024/02/27 04:51:21;;;;;;;17.67;15.77;;;8.80;36.50;;;;;;10493446;28;20612;-74
2024/02/27 04:56:26;;;;;;;17.97;15.60;;;8.80;37.20;;;;;;10493429;28;20224;-74
2024/02/27 05:01:29;;;;;;;17.23;15.07;;;8.80;36.70;;;;;;10493229;28;20280;-74
2024/02/27 05:06:33;;;;;;;18.03;14.40;;;8.70;36.40;;;;;;10492915;28;20230;-74
2024/02/27 05:11:37;;;;;;;17.70;15.53;;;8.80;36.50;;;;;;10492571;28;20319;-74
2024/02/27 05:16:41;;;;;;;17.83;15.53;;;8.70;37.40;;;;;;10492612;28;20228;-74
2024/02/27 05:21:44;;;;;;;18.23;15.77;;;8.70;36.50;;;;;;10492472;28;20838;-75
2024/02/27 05:26:49;;;;;;;17.67;15.53;;;8.80;36.60;;;;;;10492117;28;20311;-75
2024/02/27 05:31:52;;;;;;;20.03;15.03;;;8.80;36.90;;;;;;10491935;28;20347;-76
2024/02/27 05:36:55;;;;;;;18.10;15.97;;;8.80;36.70;;;;;;10490935;28;21008;-73
2024/02/27 05:42:00;;;;;;;18.17;15.43;;;8.70;36.70;;;;;;10484021;28;20246;-74
2024/02/27 05:47:04;;;;;;;18.47;15.53;;;8.80;37.10;;;;;;10462441;28;20225;-76
2024/02/27 05:52:08;;;;;;;17.93;15.57;;;8.80;36.90;;;;;;10449136;28;20703;-73
2024/02/27 05:57:13;;;;;;;18.70;16.23;;;8.80;36.90;;;;;;10434710;28;20394;-73
2024/02/27 06:02:16;;;;;;;19.03;16.20;;;8.80;37.20;;;;;;10439354;28;20233;-76
2024/02/27 06:07:36;;;;;;;18.80;16.40;;;8.80;36.90;;;;;;10503938;27;20560;-74
2024/02/27 06:12:40;;;;;;;18.50;15.00;;;8.90;37.30;;;;;;10496445;28;20224;-74
2024/02/27 06:17:44;;;;;;;17.40;14.97;;;8.90;37.10;;;;;;10500642;28;20781;-75
2024/02/27 06:22:48;;;;;;;20.43;16.20;;;8.90;37.20;;;;;;10501077;28;20217;-75
2024/02/27 06:27:52;;;;;;;16.80;15.07;;;8.90;37.30;;;;;;10507597;28;20233;-75
2024/02/27 06:32:55;;;;;;;16.63;14.77;;;9.00;37.70;;;;;;10499564;28;20220;-75
2024/02/27 06:38:00;;;;;;;18.20;15.63;;;9.00;37.50;;;;;;10511775;28;20306;-75
2024/02/27 06:43:05;;;;;;;19.20;16.37;;;9.10;37.70;;;;;;10509249;28;20223;-75
2024/02/27 06:48:12;;;;;;;19.07;15.90;;;9.10;37.30;;;;;;10506838;28;20234;-75
2024/02/27 06:53:17;;;;;;;22.80;15.43;;;9.10;37.20;;;;;;10515890;28;20255;-73
2024/02/27 06:58:21;;;;;;;21.57;15.97;;;9.10;37.30;;;;;;10518982;28;20758;-73
2024/02/27 07:03:25;;;;;;;23.13;17.20;;;9.10;37.20;;;;;;10515565;28;20242;-73
2024/02/27 07:08:30;;;;;;;19.13;16.30;;;9.10;37.20;;;;;;10521508;28;20228;-74
2024/02/27 07:13:33;;;;;;;17.90;15.47;;;9.10;37.50;;;;;;10521706;28;20285;-73
2024/02/27 07:18:37;;;;;;;16.63;14.87;;;9.10;37.30;;;;;;10494898;28;20236;-73
2024/02/27 07:23:41;;;;;;;18.30;15.30;;;9.10;37.40;;;;;;10501764;28;20304;-73
2024/02/27 07:28:45;;;;;;;17.30;15.30;;;9.20;37.70;;;;;;10486025;28;20711;-73
2024/02/27 07:33:48;;;;;;;17.93;15.07;;;9.20;38.30;;;;;;10492873;28;20303;-73
2024/02/27 07:38:53;;;;;;;18.30;16.07;;;9.20;38.40;;;;;;10492405;28;20302;-73
2024/02/27 07:43:56;;;;;;;19.00;15.83;;;9.20;37.80;;;;;;10488294;28;20318;-73
2024/02/27 07:48:59;;;;;;;17.70;15.77;;;9.20;37.60;;;;;;10491965;28;20220;-73
2024/02/27 07:54:04;;;;;;;19.43;15.83;;;9.20;37.60;;;;;;10478139;28;20220;-73
2024/02/27 07:59:07;;;;;;;17.13;14.93;;;9.30;37.90;;;;;;10491281;28;20220;-73
2024/02/27 08:04:10;;;;;;;16.97;14.97;;;9.30;37.80;;;;;;10500232;28;20319;-73
2024/02/27 08:09:16;;;;;;;16.90;14.87;;;9.30;37.90;;;;;;10491193;28;20238;-73
2024/02/27 08:14:20;;;;;;;17.97;16.07;;;9.40;38.30;;;;;;10488880;28;20306;-74
2024/02/27 08:19:23;;;;;;;18.30;15.97;;;9.40;38.00;;;;;;10497338;28;20710;-73
2024/02/27 08:24:28;;;;;;;16.83;14.97;;;9.50;38.10;;;;;;10474916;28;20243;-74
2024/02/27 08:29:31;;;;;;;19.43;15.47;;;9.50;38.40;;;;;;10491788;28;20236;-74
2024/02/27 08:34:34;;;;;;;17.10;14.57;;;9.60;38.20;;;;;;10487505;28;20228;-74
2024/02/27 08:39:39;;;;;;;17.93;14.83;;;9.60;38.20;;;;;;10482626;28;20235;-73
2024/02/27 08:44:42;;;;;;;17.20;15.17;;;9.60;38.50;;;;;;10479536;28;20232;-73
2024/02/27 08:49:46;;;;;;;17.03;14.87;;;9.70;38.30;;;;;;10481732;28;20225;-73
2024/02/27 08:54:50;;;;;;;18.03;14.93;;;9.70;38.40;;;;;;10487700;28;20259;-73
2024/02/27 08:59:53;;;;;;;16.27;14.00;;;9.80;38.80;;;;;;10478347;28;20263;-73
2024/02/27 09:04:57;;;;;;;15.30;13.70;;;9.90;38.60;;;;;;10497370;28;20240;-73
2024/02/27 09:10:01;;;;;;;16.23;14.37;;;9.90;38.80;;;;;;10488253;28;20311;-73
2024/02/27 09:15:05;;;;;;;15.33;13.73;;;10.00;38.00;;;;;;10487705;28;21062;-73
2024/02/27 09:20:12;;;;;;;14.33;12.57;;;10.10;37.70;;;;;;10486525;28;20315;-73
2024/02/27 09:25:17;;;;;;;14.83;13.33;;;10.20;37.90;;;;;;10482039;28;20615;-73
2024/02/27 09:30:20;;;;;;;14.40;12.90;;;10.30;38.00;;;;;;10484677;28;20232;-73
2024/02/27 09:35:23;;;;;;;13.33;11.93;;;10.40;37.70;;;;;;10485201;28;20273;-74
2024/02/27 09:40:28;;;;;;;13.87;12.47;;;10.50;38.50;;;;;;10483916;28;20228;-75
2024/02/27 09:45:31;;;;;;;14.47;12.87;;;10.50;37.70;;;;;;10484741;28;20780;-74
2024/02/27 09:50:36;;;;;;;14.53;13.03;;;10.70;37.70;;;;;;10480111;28;20274;-74
2024/02/27 09:55:41;;;;;;;13.60;12.20;;;10.70;37.70;;;;;;10478955;28;20242;-74
2024/02/27 10:00:45;;;;;;;14.43;12.90;;;10.90;38.00;;;;;;10481746;28;20720;-74
2024/02/27 10:05:48;;;;;;;13.93;12.53;;;11.00;37.90;;;;;;10480341;28;20275;-74
2024/02/27 10:10:54;;;;;;;14.63;13.13;;;11.00;37.70;;;;;;10484402;28;20232;-74
2024/02/27 10:16:00;;;;;;;14.57;13.03;;;11.10;37.80;;;;;;10473875;28;20648;-75
2024/02/27 10:21:05;;;;;;;14.23;12.37;;;11.10;37.60;;;;;;10484481;28;20242;-75
2024/02/27 10:26:11;;;;;;;14.33;12.83;;;11.20;37.80;;;;;;10480486;28;20307;-74
2024/02/27 10:31:14;;;;;;;12.97;11.67;;;11.30;37.70;;;;;;10471274;28;20326;-74
2024/02/27 10:36:18;;;;;;;12.93;11.53;;;11.30;37.50;;;;;;10479498;28;20302;-74
2024/02/27 10:41:23;;;;;;;12.97;11.67;;;11.40;37.40;;;;;;10470357;28;24725;-74
2024/02/27 10:46:27;;;;;;;13.10;11.80;;;11.50;37.50;;;;;;10478169;28;20263;-74
2024/02/27 10:51:30;;;;;;;13.13;11.80;;;11.50;37.40;;;;;;10482395;28;20228;-73
2024/02/27 10:56:35;;;;;;;12.80;11.60;;;11.60;37.30;;;;;;10486558;28;20224;-74
2024/02/27 11:01:41;;;;;;;12.93;11.50;;;11.60;37.20;;;;;;10491017;28;20228;-74
2024/02/27 11:06:51;;;;;;;12.40;11.10;;;11.60;37.10;;;;;;10483879;28;20232;-74
2024/02/27 11:11:57;;;;;;;12.90;11.60;;;11.60;37.00;;;;;;10481741;28;20240;-74
2024/02/27 11:17:05;;;;;;;12.70;11.43;;;11.70;37.10;;;;;;10489491;28;20228;-74
2024/02/27 11:22:08;;;;;;;12.87;11.57;;;11.70;37.00;;;;;;10476085;28;20318;-74
2024/02/27 11:27:17;;;;;;;12.60;11.07;;;11.70;36.90;;;;;;10488985;28;20224;-74
2024/02/27 11:32:21;;;;;;;13.47;12.07;;;11.80;37.10;;;;;;10463307;28;20282;-75
2024/02/27 11:37:25;;;;;;;12.20;10.93;;;11.80;37.00;;;;;;10463335;28;20247;-75
2024/02/27 11:42:37;;;;;;;11.43;10.33;;;11.90;37.00;;;;;;10483037;28;20236;-72
2024/02/27 11:47:42;;;;;;;12.77;11.37;;;11.90;37.10;;;;;;10489546;28;20220;-76
2024/02/27 11:52:47;;;;;;;12.70;11.33;;;12.00;37.00;;;;;;10480556;28;20281;-74
2024/02/27 11:57:54;;;;;;;12.60;11.30;;;12.00;37.00;;;;;;10490085;28;20238;-74
2024/02/27 12:02:57;;;;;;;14.23;12.40;;;12.00;37.00;;;;;;10486286;28;20239;-74
2024/02/27 12:08:01;;;;;;;12.70;11.33;;;12.00;36.80;;;;;;10486286;28;20243;-74
2024/02/27 12:13:09;;;;;;;13.43;12.07;;;12.00;36.80;;;;;;10486719;28;20235;-74
2024/02/27 12:18:12;;;;;;;13.60;12.20;;;12.10;36.80;;;;;;10490178;28;20919;-74
2024/02/27 12:23:16;;;;;;;13.30;12.00;;;12.00;36.70;;;;;;10491500;28;20234;-74
2024/02/27 12:28:20;;;;;;;13.40;11.73;;;12.00;36.70;;;;;;10491008;28;20243;-74
2024/02/27 12:33:24;;;;;;;12.70;11.40;;;12.00;36.80;;;;;;10491042;28;20228;-74
2024/02/27 12:38:27;;;;;;;12.37;11.10;;;12.00;36.90;;;;;;10490861;28;20637;-74
2024/02/27 12:43:32;;;;;;;12.33;10.97;;;12.10;37.00;;;;;;10490519;28;20300;-74
2024/02/27 12:48:35;;;;;;;12.60;11.37;;;12.20;37.00;;;;;;10490293;28;20752;-74
2024/02/27 12:53:39;;;;;;;13.00;11.60;;;12.30;37.00;;;;;;10490251;28;20699;-74
2024/02/27 12:58:43;;;;;;;12.83;11.53;;;12.30;36.90;;;;;;10489598;28;20821;-74
2024/02/27 13:03:50;;;;;;;12.53;11.27;;;12.40;36.90;;;;;;10489400;28;20303;-74
2024/02/27 13:08:53;;;;;;;12.07;10.90;;;12.50;36.80;;;;;;10489334;28;20236;-74
2024/02/27 13:13:57;;;;;;;12.90;11.40;;;12.50;36.80;;;;;;10488769;28;20268;-73
2024/02/27 13:19:01;;;;;;;11.47;10.20;;;12.60;36.80;;;;;;10488936;28;20279;-74
2024/02/27 13:24:05;;;;;;;12.07;10.87;;;12.60;36.80;;;;;;10483719;28;20232;-74
2024/02/27 13:29:10;;;;;;;11.57;10.47;;;12.70;36.70;;;;;;10488688;28;20259;-74
2024/02/27 13:34:15;;;;;;;12.43;10.90;;;12.80;36.60;;;;;;10488846;28;20224;-74
2024/02/27 13:39:21;;;;;;;12.93;10.80;;;12.80;37.20;;;;;;10488533;28;20232;-74
2024/02/27 13:44:28;;;;;;;12.20;10.93;;;12.80;36.60;;;;;;10488550;28;20729;-74
2024/02/27 13:49:31;;;;;;;11.87;10.67;;;12.90;36.60;;;;;;10488016;28;20263;-74
2024/02/27 13:54:35;;;;;;;11.80;10.70;;;13.00;36.50;;;;;;10488259;28;20252;-75
2024/02/27 13:59:40;;;;;;;12.33;11.13;;;13.10;36.60;;;;;;10487937;28;20790;-75
2024/02/27 14:04:43;;;;;;;12.00;10.80;;;13.10;36.60;;;;;;10491678;28;20303;-75
2024/02/27 14:09:46;;;;;;;13.33;11.50;;;13.10;36.40;;;;;;10491500;28;20792;-74
2024/02/27 14:14:51;;;;;;;13.00;11.70;;;13.10;36.30;;;;;;10466246;28;20247;-75
2024/02/27 14:19:54;;;;;;;12.97;11.03;;;13.20;36.40;;;;;;10459618;28;20315;-74
2024/02/27 14:24:59;;;;;;;12.23;10.93;;;13.20;36.40;;;;;;10481324;28;20282;-75
2024/02/27 14:30:05;;;;;;;12.03;10.73;;;13.20;36.40;;;;;;10486556;28;20278;-75
2024/02/27 14:35:09;;;;;;;11.20;10.00;;;13.20;36.30;;;;;;10494307;28;20216;-75
2024/02/27 14:40:12;;;;;;;10.80;9.70;;;13.20;36.50;;;;;;10493786;28;20277;-75
2024/02/27 14:45:18;;;;;;;10.53;9.43;;;13.30;36.50;;;;;;10499312;28;20319;-75
2024/02/27 14:50:21;;;;;;;11.40;10.27;;;13.30;36.30;;;;;;10485473;28;20238;-75
2024/02/27 14:55:25;;;;;;;10.97;9.90;;;13.40;36.40;;;;;;10491103;28;20224;-75
2024/02/27 15:00:29;;;;;;;10.47;9.37;;;13.40;36.20;;;;;;10491120;28;20260;-75
2024/02/27 15:05:33;;;;;;;10.20;9.20;;;13.50;36.10;;;;;;10490691;28;20224;-75
2024/02/27 15:10:36;;;;;;;10.50;9.50;;;13.50;36.20;;;;;;10483341;28;20233;-74
2024/02/27 15:15:40;;;;;;;9.47;8.57;;;13.60;36.10;;;;;;10493022;28;20224;-74
2024/02/27 15:20:44;;;;;;;10.57;9.50;;;13.60;36.10;;;;;;10490969;28;20741;-74
2024/02/27 15:25:47;;;;;;;10.37;9.03;;;13.60;36.20;;;;;;10492801;28;20220;-74
2024/02/27 15:30:52;;;;;;;9.43;8.40;;;13.70;36.20;;;;;;10492296;28;20315;-74
2024/02/27 15:35:55;;;;;;;9.93;8.93;;;13.70;36.00;;;;;;10497447;28;20220;-74
2024/02/27 15:40:58;;;;;;;9.77;8.73;;;13.80;36.20;;;;;;10488856;28;20758;-74
2024/02/27 15:46:03;;;;;;;9.67;8.57;;;13.80;36.10;;;;;;10492433;28;20991;-74
2024/02/27 15:51:09;;;;;;;10.00;9.00;;;13.80;36.20;;;;;;10492667;28;20256;-74
2024/02/27 15:56:12;;;;;;;9.33;8.43;;;13.80;36.00;;;;;;10477684;28;20226;-74
2024/02/27 16:01:17;;;;;;;10.10;9.00;;;13.80;36.00;;;;;;10501369;28;20315;-74
2024/02/27 16:06:24;;;;;;;9.27;8.47;;;13.80;36.00;;;;;;10479781;28;20243;-74
2024/02/27 16:11:27;;;;;;;10.50;9.50;;;13.80;35.90;;;;;;10473346;28;20309;-74
2024/02/27 16:16:32;;;;;;;11.10;9.30;;;13.90;36.00;;;;;;10479864;28;20216;-74
2024/02/27 16:21:40;;;;;;;9.63;8.70;;;13.80;35.90;;;;;;10483072;28;20233;-74
2024/02/27 16:26:44;;;;;;;10.90;9.30;;;13.80;35.70;;;;;;10486026;28;20227;-74
2024/02/27 16:31:48;;;;;;;9.03;8.23;;;13.80;35.90;;;;;;10492763;28;20310;-74
2024/02/27 16:36:52;;;;;;;8.43;7.63;;;13.80;35.80;;;;;;10486785;28;20232;-74
2024/02/27 16:41:55;;;;;;;8.83;7.93;;;13.80;35.90;;;;;;10486585;28;20248;-74
2024/02/27 16:47:00;;;;;;;10.47;9.50;;;13.90;36.00;;;;;;10478480;28;20932;-76
2024/02/27 16:52:03;;;;;;;12.23;8.53;;;13.80;36.10;;;;;;10475425;28;20728;-76
2024/02/27 16:57:06;;;;;;;9.93;8.87;;;13.80;36.10;;;;;;10477101;28;20308;-75
2024/02/27 17:02:11;;;;;;;11.27;9.17;;;13.80;36.00;;;;;;10488689;28;20703;-74
2024/02/27 17:07:14;;;;;;;11.00;9.13;;;13.80;35.90;;;;;;10467974;28;20251;-75
2024/02/27 17:12:18;;;;;;;9.90;9.00;;;13.80;36.00;;;;;;10486061;28;20230;-75
2024/02/27 17:17:23;;;;;;;8.80;8.00;;;13.80;35.90;;;;;;10487000;28;20889;-75
2024/02/27 17:22:26;;;;;;;9.63;8.73;;;13.80;36.60;;;;;;10499948;28;20260;-75
2024/02/27 17:27:29;;;;;;;8.13;7.40;;;13.70;35.80;;;;;;10482920;28;20230;-75
2024/02/27 17:32:33;;;;;;;8.60;7.80;;;13.70;35.80;;;;;;10482256;28;20224;-75
2024/02/27 17:37:37;;;;;;;8.43;7.63;;;13.60;35.80;;;;;;10483858;28;20221;-75
2024/02/27 17:42:40;;;;;;;8.70;7.80;;;13.50;35.70;;;;;;10471635;28;20615;-75
2024/02/27 17:47:45;;;;;;;8.17;7.37;;;13.30;35.80;;;;;;10488164;28;20783;-75
2024/02/27 17:52:48;;;;;;;8.57;7.67;;;13.30;36.10;;;;;;10467588;28;20256;-75
2024/02/27 17:57:51;;;;;;;12.30;11.07;;;13.20;36.10;;;;;;10477614;28;20715;-75
2024/02/27 18:02:57;;;;;;;10.63;9.63;;;13.20;36.20;;;;;;10466732;28;20327;-74
2024/02/27 18:08:00;;;;;;;11.00;9.90;;;13.10;36.10;;;;;;10474464;28;20756;-75
2024/02/27 18:13:03;;;;;;;11.27;10.20;;;13.10;36.10;;;;;;10474810;28;20682;-75
2024/02/27 18:18:08;;;;;;;14.70;12.73;;;13.10;36.00;;;;;;10461667;28;20262;-74
2024/02/27 18:23:11;;;;;;;14.13;12.63;;;13.00;36.90;;;;;;10471606;28;20216;-74
2024/02/27 18:28:15;;;;;;;12.10;10.90;;;12.90;36.10;;;;;;10468697;28;20238;-73
2024/02/27 18:33:19;;;;;;;11.80;10.57;;;12.80;36.00;;;;;;10464859;28;20342;-73
2024/02/27 18:38:25;;;;;;;12.13;11.00;;;12.80;36.30;;;;;;10471083;28;20766;-73
2024/02/27 18:43:28;;;;;;;11.60;10.50;;;12.80;36.30;;;;;;10458910;28;20229;-74
2024/02/27 18:48:34;;;;;;;12.03;10.50;;;12.80;36.20;;;;;;10474887;28;20252;-74
2024/02/27 18:53:39;;;;;;;16.23;13.97;;;12.70;36.30;;;;;;10484785;28;20224;-74
2024/02/27 18:58:43;;;;;;;14.70;12.47;;;12.70;36.30;;;;;;10484954;28;20236;-74
2024/02/27 19:03:48;;;;;;;13.83;12.53;;;12.70;36.30;;;;;;10471688;28;20231;-74
2024/02/27 19:08:53;;;;;;;13.03;10.97;;;12.70;36.30;;;;;;10480276;28;20232;-74
2024/02/27 19:13:56;;;;;;;11.43;10.33;;;12.60;36.20;;;;;;10476742;28;20228;-75
2024/02/27 19:19:01;;;;;;;12.57;11.47;;;12.50;36.10;;;;;;10468203;28;20829;-75
2024/02/27 19:24:05;;;;;;;12.30;11.10;;;12.50;36.10;;;;;;10470563;28;20237;-76
2024/02/27 19:29:09;;;;;;;13.73;12.07;;;12.40;36.10;;;;;;10484422;28;20653;-74
2024/02/27 19:34:13;;;;;;;13.10;11.80;;;12.30;36.00;;;;;;10490332;28;20661;-74
2024/02/27 19:39:17;;;;;;;13.40;12.00;;;12.30;36.20;;;;;;10497243;28;20238;-75
2024/02/27 19:44:21;;;;;;;13.00;11.70;;;12.20;36.10;;;;;;10489729;28;20328;-74
2024/02/27 19:49:25;;;;;;;13.90;12.43;;;12.20;36.20;;;;;;10488164;28;20236;-74
2024/02/27 19:54:29;;;;;;;16.27;13.57;;;12.10;36.40;;;;;;10491186;28;20234;-75
2024/02/27 19:59:33;;;;;;;20.97;16.73;;;12.10;36.10;;;;;;10490879;28;20761;-75
2024/02/27 20:04:37;;;;;;;24.13;19.97;;;12.00;36.20;;;;;;10490508;28;20308;-75
2024/02/27 20:09:44;;;;;;;19.00;15.17;;;12.00;36.30;;;;;;10490582;28;20248;-74
2024/02/27 20:14:47;;;;;;;20.87;16.53;;;11.90;36.20;;;;;;10496531;28;20224;-75
2024/02/27 20:19:52;;;;;;;23.00;19.03;;;11.90;36.30;;;;;;10481387;28;20225;-75
2024/02/27 20:24:55;;;;;;;20.13;16.00;;;11.90;36.40;;;;;;10464886;28;20225;-75
2024/02/27 20:29:59;;;;;;;18.77;15.57;;;11.90;36.30;;;;;;10468549;28;20236;-74
2024/02/27 20:35:04;;;;;;;16.07;14.37;;;11.80;36.40;;;;;;10467519;28;20232;-76
2024/02/27 20:40:10;;;;;;;14.70;12.57;;;11.80;37.20;;;;;;10467807;28;20752;-75
2024/02/27 20:45:13;;;;;;;16.83;14.23;;;11.70;36.20;;;;;;10466872;28;20710;-75
2024/02/27 20:50:19;;;;;;;14.83;13.27;;;11.70;36.40;;;;;;10465735;28;20225;-75
2024/02/27 20:55:23;;;;;;;15.37;13.77;;;11.60;36.50;;;;;;10469857;28;20233;-75
2024/02/27 21:00:26;;;;;;;14.70;13.17;;;11.50;36.40;;;;;;10469908;28;20716;-75
2024/02/27 21:05:33;;;;;;;17.17;15.37;;;11.50;36.40;;;;;;10464204;28;20742;-75
2024/02/27 21:10:36;;;;;;;15.17;13.33;;;11.50;36.60;;;;;;10463843;28;20404;-75
2024/02/27 21:15:39;;;;;;;14.83;13.23;;;11.40;36.60;;;;;;10463508;28;20224;-76
2024/02/27 21:20:44;;;;;;;17.47;14.43;;;11.40;36.60;;;;;;10461649;28;20232;-75
2024/02/27 21:25:48;;;;;;;19.77;15.40;;;11.30;36.70;;;;;;10463507;28;20258;-75
2024/02/27 21:30:51;;;;;;;15.77;13.40;;;11.20;36.70;;;;;;10453475;28;20258;-74
2024/02/27 21:35:58;;;;;;;14.27;12.63;;;11.10;36.60;;;;;;10456512;28;20587;-75
2024/02/27 21:41:01;;;;;;;14.90;12.20;;;11.00;36.80;;;;;;10459502;28;20224;-75
2024/02/27 21:46:05;;;;;;;17.40;15.30;;;10.80;36.90;;;;;;10462892;28;20756;-75
2024/02/27 21:51:09;;;;;;;20.77;17.37;;;10.60;37.00;;;;;;10461109;28;20224;-75
2024/02/27 21:56:13;;;;;;;19.70;16.30;;;10.50;37.30;;;;;;10462124;28;20227;-75
2024/02/27 22:01:16;;;;;;;16.93;15.13;;;10.50;37.20;;;;;;10462883;28;20231;-73
2024/02/27 22:06:21;;;;;;;16.90;14.03;;;10.50;37.10;;;;;;10459238;28;20232;-73
2024/02/27 22:11:25;;;;;;;16.13;14.17;;;10.50;37.10;;;;;;10462472;28;20250;-73
2024/02/27 22:16:28;;;;;;;14.67;13.27;;;10.40;36.90;;;;;;10465141;28;20353;-76
2024/02/27 22:21:33;;;;;;;14.17;11.93;;;10.40;37.00;;;;;;10461291;28;20232;-73
2024/02/27 22:26:36;;;;;;;13.67;12.37;;;10.30;37.10;;;;;;10459876;28;20709;-76
2024/02/27 22:31:39;;;;;;;14.50;12.57;;;10.20;37.10;;;;;;10453408;28;20228;-76
2024/02/27 22:36:44;;;;;;;14.17;12.33;;;10.00;37.20;;;;;;10458379;28;20216;-76
2024/02/27 22:41:47;;;;;;;13.17;11.83;;;10.00;37.50;;;;;;10460769;28;20651;-76
2024/02/27 22:46:51;;;;;;;13.43;12.13;;;9.90;38.40;;;;;;10459016;28;20230;-76
2024/02/27 22:51:55;;;;;;;14.00;11.80;;;9.80;38.30;;;;;;10460404;28;20232;-76
2024/02/27 22:56:58;;;;;;;13.17;11.90;;;9.80;38.40;;;;;;10469769;28;20228;-75
2024/02/27 23:02:02;;;;;;;14.47;11.33;;;9.70;38.20;;;;;;10467009;28;20315;-76
2024/02/27 23:07:07;;;;;;;12.07;10.80;;;9.50;38.50;;;;;;10466146;28;20231;-76
2024/02/27 23:12:10;;;;;;;12.27;11.07;;;9.40;38.70;;;;;;10469240;28;20335;-76
2024/02/27 23:17:13;;;;;;;11.70;10.50;;;9.40;38.50;;;;;;10469280;28;20684;-76
2024/02/27 23:22:18;;;;;;;13.30;12.00;;;9.40;38.40;;;;;;10471948;28;20235;-76
2024/02/27 23:27:22;;;;;;;13.37;12.03;;;9.40;38.60;;;;;;10469288;28;20624;-76
2024/02/27 23:32:26;;;;;;;13.73;11.70;;;9.40;38.60;;;;;;10462825;28;20256;-76
2024/02/27 23:37:30;;;;;;;13.60;12.17;;;9.30;38.70;;;;;;10467654;28;20220;-76
2024/02/27 23:42:35;;;;;;;14.83;12.50;;;9.20;38.90;;;;;;10463729;28;20237;-76
2024/02/27 23:47:39;;;;;;;13.57;12.17;;;9.10;39.10;;;;;;10474176;28;20682;-76
2024/02/27 23:52:45;;;;;;;14.80;13.30;;;9.00;38.90;;;;;;10466983;28;20232;-76
2024/02/27 23:57:48;;;;;;;11.97;10.77;;;8.90;39.40;;;;;;10466557;28;20228;-76
